createdAt,value
2023-01-26T00:02:42.603Z,0.00
2023-01-26T00:07:42.492Z,0.00
2023-01-26T00:12:42.432Z,0.00
2023-01-26T00:17:42.335Z,0.00
2023-01-26T00:22:42.291Z,0.00
2023-01-26T00:27:42.229Z,0.00
2023-01-26T00:32:42.180Z,0.00
2023-01-26T00:37:42.084Z,0.00
2023-01-26T00:42:42.041Z,0.00
2023-01-26T00:47:41.948Z,0.00
2023-01-26T00:52:41.919Z,0.00
2023-01-26T00:57:41.854Z,0.00
2023-01-26T01:02:41.785Z,0.00
2023-01-26T01:07:41.737Z,0.00
2023-01-26T01:12:41.665Z,0.00
2023-01-26T01:17:41.579Z,0.00
2023-01-26T01:22:41.487Z,0.00
2023-01-26T01:27:41.457Z,0.00
2023-01-26T01:32:41.383Z,0.00
2023-01-26T01:37:41.284Z,0.00
2023-01-26T01:42:41.260Z,0.00
2023-01-26T01:47:41.187Z,0.00
2023-01-26T01:52:41.089Z,0.00
2023-01-26T01:57:41.040Z,0.00
2023-01-26T02:02:41.044Z,0.00
2023-01-26T02:07:40.915Z,0.00
2023-01-26T02:12:40.931Z,0.00
2023-01-26T02:17:40.829Z,0.00
2023-01-26T02:22:40.739Z,0.00
2023-01-26T02:27:40.648Z,0.00
2023-01-26T02:32:40.584Z,0.00
2023-01-26T02:37:40.520Z,0.00
2023-01-26T02:42:40.448Z,0.00
2023-01-26T02:47:40.425Z,0.00
2023-01-26T02:52:40.372Z,0.00
2023-01-26T02:57:40.266Z,0.00
2023-01-26T03:02:40.215Z,0.00
2023-01-26T03:07:40.109Z,0.00
2023-01-26T03:12:40.064Z,0.00
2023-01-26T03:17:40.044Z,0.00
2023-01-26T03:22:39.953Z,0.00
2023-01-26T03:27:39.862Z,0.00
2023-01-26T03:32:39.802Z,0.00
2023-01-26T03:37:39.724Z,0.00
2023-01-26T03:42:39.716Z,0.00
2023-01-26T03:47:39.611Z,0.00
2023-01-26T03:52:39.518Z,0.00
2023-01-26T03:57:39.536Z,0.00
2023-01-26T04:02:39.390Z,0.00
2023-01-26T04:07:39.393Z,0.00
2023-01-26T04:12:39.291Z,0.00
2023-01-26T04:17:39.243Z,0.00
2023-01-26T04:22:39.217Z,0.00
2023-01-26T04:27:39.096Z,0.00
2023-01-26T04:32:39.062Z,0.00
2023-01-26T04:37:38.966Z,0.00
2023-01-26T04:42:38.955Z,0.00
2023-01-26T04:47:38.806Z,0.00
2023-01-26T04:52:38.784Z,0.00
2023-01-26T04:57:38.737Z,0.00
2023-01-26T05:02:38.626Z,0.00
2023-01-26T05:07:38.625Z,0.00
2023-01-26T05:12:38.513Z,0.00
2023-01-26T05:17:38.431Z,0.00
2023-01-26T05:22:38.419Z,0.00
2023-01-26T05:27:38.306Z,0.00
2023-01-26T05:32:38.248Z,0.00
2023-01-26T05:37:38.181Z,0.00
2023-01-26T05:42:38.150Z,0.00
2023-01-26T05:47:38.038Z,0.00
2023-01-26T05:52:37.976Z,0.00
2023-01-26T05:57:37.931Z,0.00
2023-01-26T06:02:37.827Z,0.00
2023-01-26T06:07:37.828Z,0.00
2023-01-26T06:12:37.703Z,0.00
2023-01-26T06:17:37.671Z,0.00
2023-01-26T06:22:37.610Z,0.00
2023-01-26T06:27:37.604Z,0.00
2023-01-26T06:32:37.463Z,0.00
2023-01-26T06:37:37.394Z,0.00
2023-01-26T06:42:37.367Z,0.00
2023-01-26T06:47:37.316Z,0.00
2023-01-26T06:52:37.277Z,0.00
2023-01-26T06:57:37.161Z,0.00
2023-01-26T07:02:37.105Z,5.62
2023-01-26T07:07:37.016Z,5.62
2023-01-26T07:12:36.938Z,11.25
2023-01-26T07:17:36.889Z,11.25
2023-01-26T07:22:36.851Z,11.25
2023-01-26T07:27:36.748Z,11.25
2023-01-26T07:32:36.669Z,16.88
2023-01-26T07:37:36.608Z,22.50
2023-01-26T07:42:36.572Z,33.75
2023-01-26T07:47:36.480Z,39.38
2023-01-26T07:52:36.435Z,50.62
2023-01-26T07:57:36.354Z,45.00
2023-01-26T08:02:36.338Z,45.00
2023-01-26T08:07:36.256Z,50.62
2023-01-26T08:12:39.062Z,56.25
2023-01-26T08:17:36.187Z,61.88
2023-01-26T08:22:36.026Z,61.88
2023-01-26T08:27:35.978Z,67.50
2023-01-26T08:32:35.917Z,84.38
2023-01-26T08:37:35.852Z,84.38
2023-01-26T08:42:35.780Z,78.75
2023-01-26T08:47:35.728Z,78.75
2023-01-26T08:52:35.711Z,61.88
2023-01-26T08:57:35.579Z,50.62
2023-01-26T09:02:36.489Z,45.00
2023-01-26T09:07:35.485Z,50.62
2023-01-26T09:12:35.385Z,45.00
2023-01-26T09:17:35.336Z,33.75
2023-01-26T09:22:35.278Z,33.75
2023-01-26T09:27:35.207Z,39.38
2023-01-26T09:32:35.138Z,39.38
2023-01-26T09:37:35.089Z,45.00
2023-01-26T09:42:35.013Z,56.25
2023-01-26T09:47:34.950Z,61.88
2023-01-26T09:52:34.856Z,67.50
2023-01-26T09:57:34.913Z,73.12
2023-01-26T10:02:34.768Z,78.75
2023-01-26T10:07:34.656Z,73.12
2023-01-26T10:12:34.695Z,67.50
2023-01-26T10:17:34.545Z,56.25
2023-01-26T10:22:34.499Z,56.25
2023-01-26T10:27:34.442Z,61.88
2023-01-26T10:32:34.342Z,56.25
2023-01-26T10:37:34.262Z,61.88
2023-01-26T10:42:34.217Z,67.50
2023-01-26T10:47:34.177Z,61.88
2023-01-26T10:52:34.060Z,61.88
2023-01-26T10:57:34.040Z,67.50
2023-01-26T11:02:33.999Z,67.50
2023-01-26T11:07:34.480Z,78.75
2023-01-26T11:12:33.810Z,90.00
2023-01-26T11:17:33.788Z,73.12
2023-01-26T11:22:33.696Z,73.12
2023-01-26T11:27:33.597Z,95.62
2023-01-26T11:32:33.569Z,84.38
2023-01-26T11:37:33.508Z,84.38
2023-01-26T11:42:33.415Z,56.25
2023-01-26T11:47:33.375Z,50.62
2023-01-26T11:52:33.326Z,56.25
2023-01-26T11:57:33.277Z,50.62
2023-01-26T12:02:33.205Z,56.25
2023-01-26T12:07:33.106Z,56.25
2023-01-26T12:12:33.043Z,45.00
2023-01-26T12:17:33.232Z,50.62
2023-01-26T12:22:34.319Z,67.50
2023-01-26T12:27:32.817Z,73.12
2023-01-26T12:32:32.785Z,84.38
2023-01-26T12:37:32.672Z,95.62
2023-01-26T12:42:32.624Z,95.62
2023-01-26T12:47:32.655Z,84.38
2023-01-26T12:52:32.501Z,67.50
2023-01-26T12:57:32.466Z,67.50
2023-01-26T13:02:32.486Z,61.88
2023-01-26T13:07:32.325Z,50.62
2023-01-26T13:12:32.247Z,50.62
2023-01-26T13:17:32.188Z,45.00
2023-01-26T13:22:32.125Z,45.00
2023-01-26T13:27:32.100Z,45.00
2023-01-26T13:32:31.971Z,56.25
2023-01-26T13:37:31.972Z,56.25
2023-01-26T13:42:31.849Z,56.25
2023-01-26T13:47:31.842Z,56.25
2023-01-26T13:52:31.760Z,45.00
2023-01-26T13:57:31.672Z,39.38
2023-01-26T14:02:31.620Z,39.38
2023-01-26T14:07:31.503Z,45.00
2023-01-26T14:12:31.474Z,45.00
2023-01-26T14:17:31.433Z,28.12
2023-01-26T14:22:31.306Z,16.88
2023-01-26T14:27:31.287Z,16.88
2023-01-26T14:32:31.178Z,16.88
2023-01-26T14:37:31.129Z,16.88
2023-01-26T14:42:31.079Z,22.50
2023-01-26T14:47:31.018Z,22.50
2023-01-26T14:52:30.966Z,22.50
2023-01-26T14:57:30.886Z,16.88
2023-01-26T15:02:30.824Z,11.25
2023-01-26T15:07:30.741Z,5.62
2023-01-26T15:12:30.661Z,5.62
2023-01-26T15:17:30.586Z,5.62
2023-01-26T15:22:30.534Z,5.62
2023-01-26T15:27:30.457Z,5.62
2023-01-26T15:32:30.434Z,0.00
2023-01-26T15:37:30.373Z,0.00
2023-01-26T15:42:30.325Z,0.00
2023-01-26T15:47:30.463Z,0.00
2023-01-26T15:52:30.203Z,0.00
2023-01-26T15:57:31.663Z,0.00
2023-01-26T16:02:30.114Z,0.00
2023-01-26T16:07:30.001Z,0.00
2023-01-26T16:12:32.165Z,0.00
2023-01-26T16:17:29.911Z,0.00
2023-01-26T16:22:29.900Z,0.00
2023-01-26T16:27:29.757Z,0.00
2023-01-26T16:32:29.690Z,0.00
2023-01-26T16:37:29.591Z,0.00
2023-01-26T16:42:29.466Z,0.00
2023-01-26T16:47:29.444Z,0.00
2023-01-26T16:52:29.375Z,0.00
2023-01-26T16:57:29.331Z,0.00
2023-01-26T17:02:29.276Z,0.00
2023-01-26T17:07:29.163Z,0.00
2023-01-26T17:12:29.097Z,0.00
2023-01-26T17:17:29.033Z,0.00
2023-01-26T17:22:28.975Z,0.00
2023-01-26T17:27:28.936Z,0.00
2023-01-26T17:32:28.837Z,0.00
2023-01-26T17:37:28.823Z,0.00
2023-01-26T17:42:28.848Z,0.00
2023-01-26T17:47:28.660Z,0.00
2023-01-26T17:52:28.610Z,0.00
2023-01-26T17:57:28.584Z,0.00
2023-01-26T18:02:28.573Z,0.00
2023-01-26T18:07:28.562Z,0.00
2023-01-26T18:12:28.413Z,0.00
2023-01-26T18:17:28.321Z,0.00
2023-01-26T18:22:28.955Z,0.00
2023-01-26T18:27:28.138Z,0.00
2023-01-26T18:32:28.126Z,0.00
2023-01-26T18:37:31.533Z,0.00
2023-01-26T18:42:27.981Z,0.00
2023-01-26T18:47:27.908Z,0.00
2023-01-26T18:52:29.533Z,0.00
2023-01-26T18:57:27.841Z,0.00
2023-01-26T19:02:27.803Z,0.00
2023-01-26T19:07:27.693Z,0.00
2023-01-26T19:12:27.616Z,0.00
2023-01-26T19:17:27.918Z,0.00
2023-01-26T19:22:27.732Z,0.00
2023-01-26T19:27:27.457Z,0.00
2023-01-26T19:32:29.271Z,0.00
2023-01-26T19:37:27.279Z,0.00
2023-01-26T19:42:27.314Z,0.00
2023-01-26T19:47:27.168Z,0.00
2023-01-26T19:52:27.198Z,0.00
2023-01-26T19:57:26.961Z,0.00
2023-01-26T20:02:26.887Z,0.00
2023-01-26T20:07:26.826Z,0.00
2023-01-26T20:12:26.971Z,0.00
2023-01-26T20:17:26.899Z,0.00
2023-01-26T20:22:26.908Z,0.00
2023-01-26T20:27:26.647Z,0.00
2023-01-26T20:32:26.791Z,0.00
2023-01-26T20:37:26.475Z,0.00
2023-01-26T20:42:26.358Z,0.00
2023-01-26T20:47:32.411Z,0.00
2023-01-26T20:52:26.286Z,0.00
2023-01-26T20:57:26.245Z,0.00
2023-01-26T21:02:26.270Z,0.00
2023-01-26T21:07:26.050Z,0.00
2023-01-26T21:12:26.037Z,0.00
2023-01-26T21:17:25.932Z,0.00
2023-01-26T21:22:25.916Z,0.00
2023-01-26T21:27:25.847Z,0.00
2023-01-26T21:32:25.728Z,0.00
2023-01-26T21:37:25.704Z,0.00
2023-01-26T21:42:25.674Z,0.00
2023-01-26T21:47:25.513Z,0.00
2023-01-26T21:52:25.548Z,0.00
2023-01-26T21:57:25.397Z,0.00
2023-01-26T22:02:25.317Z,0.00
2023-01-26T22:07:25.290Z,0.00
2023-01-26T22:12:25.189Z,0.00
2023-01-26T22:17:25.161Z,0.00
2023-01-26T22:22:25.151Z,0.00
2023-01-26T22:27:25.011Z,0.00
2023-01-26T22:32:25.152Z,0.00
2023-01-26T22:37:24.948Z,0.00
2023-01-26T22:42:24.812Z,0.00
2023-01-26T22:47:24.758Z,0.00
2023-01-26T22:52:24.785Z,0.00
2023-01-26T22:57:24.630Z,0.00
2023-01-26T23:02:24.565Z,0.00
2023-01-26T23:07:24.491Z,0.00
2023-01-26T23:12:24.445Z,0.00
2023-01-26T23:17:24.496Z,0.00
2023-01-26T23:22:24.346Z,0.00
2023-01-26T23:27:24.220Z,0.00
2023-01-26T23:32:24.196Z,0.00
2023-01-26T23:37:24.175Z,0.00
2023-01-26T23:42:24.072Z,0.00
2023-01-26T23:47:24.012Z,0.00
2023-01-26T23:52:23.965Z,0.00
2023-01-26T23:57:23.835Z,0.00
